Time;durP1;ratioP1;P1;durP2;ratioP2;P2;SDS_P1;SDS_P2;PMS_P1;PMS_P2;Temp;Humidity;BMP_temperature;BMP_pressure;BME280_temperature;BME280_humidity;BME280_pressure;Samples;Min_cycle;Max_cycle;Signal;HPM_P1;HPM_P2
2021/04/16 00:00:42;;;;;;;20.70;13.93;;;3.80;98.30;;;;;;5015008;28;20053;-76
2021/04/16 00:03:09;;;;;;;19.33;12.75;;;3.90;98.00;;;;;;5030252;28;20469;-76
2021/04/16 00:05:36;;;;;;;21.25;12.85;;;3.80;97.50;;;;;;5015229;28;20017;-75
2021/04/16 00:08:03;;;;;;;19.83;13.65;;;3.80;96.30;;;;;;5013563;28;20030;-76
2021/04/16 00:10:40;;;;;;;15.35;12.48;;;3.70;94.50;;;;;;5013876;28;20040;-76
2021/04/16 00:13:06;;;;;;;18.13;12.02;;;3.70;95.10;;;;;;5015493;28;20492;-76
2021/04/16 00:15:37;;;;;;;20.35;12.93;;;3.80;96.80;;;;;;5014933;28;20109;-76
2021/04/16 00:18:06;;;;;;;20.95;13.02;;;3.80;96.50;;;;;;5013477;28;20070;-76
2021/04/16 00:20:32;;;;;;;21.05;12.57;;;3.80;95.70;;;;;;5014720;28;20052;-76
2021/04/16 00:22:58;;;;;;;19.55;12.55;;;3.80;95.70;;;;;;5014732;28;20025;-76
2021/04/16 00:25:27;;;;;;;17.58;12.60;;;3.70;95.20;;;;;;5013393;28;20485;-76
2021/04/16 00:27:53;;;;;;;19.23;13.63;;;3.80;95.70;;;;;;5013168;28;20037;-76
2021/04/16 00:30:29;;;;;;;22.80;13.73;;;3.80;96.20;;;;;;5013066;28;20052;-75
2021/04/16 00:32:55;;;;;;;21.08;14.55;;;3.60;95.50;;;;;;5013307;28;20124;-76
2021/04/16 00:35:21;;;;;;;23.85;13.80;;;3.70;96.40;;;;;;5012457;28;20076;-76
2021/04/16 00:37:46;;;;;;;24.08;14.48;;;3.60;95.90;;;;;;5014178;28;20029;-76
2021/04/16 00:40:16;;;;;;;21.60;13.65;;;3.80;97.20;;;;;;5014365;28;20034;-76
2021/04/16 00:42:42;;;;;;;18.27;13.90;;;3.90;95.40;;;;;;5012981;28;20022;-76
2021/04/16 00:45:08;;;;;;;24.13;13.68;;;4.00;96.70;;;;;;5014197;28;20036;-76
2021/04/16 00:47:35;;;;;;;20.85;13.85;;;4.10;96.30;;;;;;5012747;28;20080;-76
2021/04/16 00:50:15;;;;;;;21.05;13.75;;;4.20;95.80;;;;;;5013024;28;20522;-76
2021/04/16 00:52:41;;;;;;;18.42;13.32;;;4.00;96.50;;;;;;5012959;28;20025;-76
2021/04/16 00:55:09;;;;;;;19.52;13.43;;;3.90;95.90;;;;;;5013982;28;20469;-76
2021/04/16 00:57:35;;;;;;;25.33;14.02;;;3.70;96.20;;;;;;5014085;28;20062;-76
2021/04/16 01:00:01;;;;;;;24.13;14.52;;;3.70;97.10;;;;;;5013923;28;20429;-76
2021/04/16 01:02:27;;;;;;;23.42;15.35;;;3.70;97.00;;;;;;5012658;28;20497;-76
2021/04/16 01:04:53;;;;;;;20.60;13.30;;;3.60;97.10;;;;;;5013811;28;20026;-76
2021/04/16 01:07:21;;;;;;;23.08;14.52;;;3.50;96.60;;;;;;5012478;28;20454;-76
2021/04/16 01:09:48;;;;;;;22.00;13.60;;;3.50;96.40;;;;;;5013730;28;20113;-76
2021/04/16 01:12:15;;;;;;;20.30;13.20;;;3.50;96.90;;;;;;5012424;28;20026;-76
2021/04/16 01:14:42;;;;;;;22.60;15.07;;;3.50;96.50;;;;;;5013677;28;20026;-76
2021/04/16 01:17:11;;;;;;;21.90;14.20;;;3.40;96.00;;;;;;5012194;28;20056;-75
2021/04/16 01:20:12;;;;;;;20.60;14.40;;;3.20;96.70;;;;;;5013650;28;20049;-76
2021/04/16 01:23:02;;;;;;;18.67;13.27;;;3.10;98.90;;;;;;5012337;28;20080;-76
2021/04/16 01:25:29;;;;;;;25.85;14.18;;;3.10;99.90;;;;;;5013428;28;20072;-75
2021/04/16 01:27:55;;;;;;;23.73;13.30;;;3.20;99.80;;;;;;5012061;28;20025;-76
2021/04/16 01:30:27;;;;;;;19.45;13.43;;;3.30;98.10;;;;;;5028434;28;20068;-76
2021/04/16 01:32:54;;;;;;;20.02;13.95;;;3.10;98.50;;;;;;5013513;28;20026;-76
2021/04/16 01:35:26;;;;;;;20.90;13.60;;;3.00;98.00;;;;;;5011936;28;20030;-76
2021/04/16 01:37:52;;;;;;;23.17;14.55;;;2.70;96.60;;;;;;5013154;28;20040;-76
2021/04/16 01:40:18;;;;;;;22.80;13.23;;;2.50;98.80;;;;;;4995630;28;20389;-76
2021/04/16 01:42:44;;;;;;;19.88;14.65;;;2.50;99.90;;;;;;5011687;28;20022;-76
2021/04/16 01:45:23;;;;;;;26.17;13.90;;;2.60;99.90;;;;;;5012442;28;20116;-75
2021/04/16 01:48:01;;;;;;;16.88;12.93;;;2.50;99.90;;;;;;5012864;28;20099;-76
2021/04/16 01:50:29;;;;;;;25.23;15.63;;;2.50;99.90;;;;;;4995424;28;20393;-76
2021/04/16 01:52:59;;;;;;;21.77;13.43;;;2.70;99.90;;;;;;5013019;28;20030;-76
2021/04/16 01:55:26;;;;;;;20.92;13.48;;;2.70;99.60;;;;;;5012830;28;20026;-76
2021/04/16 01:57:51;;;;;;;21.00;12.93;;;2.70;99.90;;;;;;5011458;28;20033;-76
2021/04/16 02:00:23;;;;;;;23.83;12.93;;;2.80;98.60;;;;;;5011566;28;20020;-76
2021/04/16 02:02:48;;;;;;;22.73;14.18;;;2.90;97.80;;;;;;5012817;28;20455;-76
2021/04/16 02:05:15;;;;;;;18.23;12.05;;;2.90;96.20;;;;;;5011883;28;20101;-76
2021/04/16 02:07:40;;;;;;;18.10;12.88;;;2.60;96.40;;;;;;5011548;28;20072;-76
2021/04/16 02:10:08;;;;;;;17.42;12.23;;;2.60;98.30;;;;;;5011729;28;20029;-76
2021/04/16 02:12:34;;;;;;;23.98;13.13;;;2.50;97.90;;;;;;5011965;28;20088;-76
2021/04/16 02:14:59;;;;;;;20.25;13.45;;;2.60;99.80;;;;;;5027858;28;20057;-76
2021/04/16 02:17:27;;;;;;;19.60;14.40;;;2.70;99.70;;;;;;5012375;28;20524;-76
2021/04/16 02:19:58;;;;;;;24.88;14.20;;;2.70;98.90;;;;;;5011442;28;20504;-77
2021/04/16 02:22:26;;;;;;;22.02;13.10;;;2.80;99.40;;;;;;5011276;28;20502;-76
2021/04/16 02:24:52;;;;;;;18.15;13.18;;;2.80;98.80;;;;;;5012508;28;20014;-76
2021/04/16 02:27:22;;;;;;;22.08;14.30;;;2.70;96.30;;;;;;5012217;28;20482;-77
2021/04/16 02:29:48;;;;;;;19.45;13.70;;;2.50;97.30;;;;;;5011066;28;20421;-76
2021/04/16 02:32:14;;;;;;;23.17;14.45;;;2.40;98.30;;;;;;5012389;28;20022;-76
2021/04/16 02:34:40;;;;;;;26.05;15.13;;;2.10;98.50;;;;;;5011106;28;20398;-76
2021/04/16 02:37:11;;;;;;;22.52;13.93;;;2.00;99.10;;;;;;5012020;28;20026;-76
2021/04/16 02:39:37;;;;;;;21.30;13.50;;;2.00;99.90;;;;;;4994859;28;20018;-76
2021/04/16 02:42:04;;;;;;;20.70;14.10;;;2.00;99.30;;;;;;5012262;28;20469;-76
2021/04/16 02:44:30;;;;;;;22.05;14.10;;;2.10;98.80;;;;;;5010978;28;20022;-76
2021/04/16 02:46:57;;;;;;;20.67;13.13;;;2.10;98.50;;;;;;5010947;28;20529;-76
2021/04/16 02:49:23;;;;;;;23.33;14.48;;;2.10;99.30;;;;;;5010908;28;20025;-76
2021/04/16 02:51:49;;;;;;;20.42;13.90;;;2.10;98.50;;;;;;5012224;28;20032;-76
2021/04/16 02:54:16;;;;;;;23.73;14.05;;;2.10;98.00;;;;;;5011023;28;20496;-76
2021/04/16 02:56:42;;;;;;;24.65;14.20;;;2.10;99.20;;;;;;4994783;28;20029;-76
2021/04/16 02:59:09;;;;;;;21.13;13.70;;;2.10;99.60;;;;;;4998622;28;20473;-76
2021/04/16 03:01:36;;;;;;;19.67;13.98;;;2.10;99.00;;;;;;5016162;28;20113;-77
2021/04/16 03:04:02;;;;;;;31.13;14.40;;;2.10;98.60;;;;;;5016110;28;20379;-76
2021/04/16 03:06:28;;;;;;;22.92;13.68;;;1.90;98.10;;;;;;5015871;28;20030;-76
2021/04/16 03:08:55;;;;;;;17.90;12.32;;;1.70;98.10;;;;;;5014852;28;20110;-77
2021/04/16 03:11:22;;;;;;;19.45;13.63;;;1.50;97.20;;;;;;5014646;28;20068;-76
2021/04/16 03:13:48;;;;;;;21.10;11.98;;;1.50;98.30;;;;;;5016003;28;20022;-77
2021/04/16 03:16:16;;;;;;;21.88;13.27;;;1.30;99.10;;;;;;5014426;28;20041;-77
2021/04/16 03:18:42;;;;;;;22.83;13.00;;;1.30;99.90;;;;;;5020119;28;20013;-77
2021/04/16 03:21:08;;;;;;;21.38;12.68;;;1.20;99.90;;;;;;5035472;28;20384;-76
2021/04/16 03:23:34;;;;;;;21.77;14.95;;;1.20;99.90;;;;;;5034270;28;20048;-76
2021/04/16 03:26:00;;;;;;;23.25;13.40;;;1.30;99.90;;;;;;5033903;28;20026;-76
2021/04/16 03:28:25;;;;;;;23.10;13.90;;;1.50;99.90;;;;;;5035441;28;20540;-76
2021/04/16 03:30:52;;;;;;;20.85;14.68;;;1.50;99.90;;;;;;5034094;28;20148;-76
2021/04/16 03:33:18;;;;;;;22.95;14.68;;;1.70;99.90;;;;;;5034257;28;20049;-76
2021/04/16 03:35:45;;;;;;;23.58;14.68;;;1.80;99.90;;;;;;5035151;28;20481;-76
2021/04/16 03:38:11;;;;;;;21.48;13.27;;;1.70;99.90;;;;;;5035074;28;20028;-76
2021/04/16 03:40:37;;;;;;;20.00;13.48;;;1.70;99.30;;;;;;5017320;28;20021;-76
2021/04/16 03:43:03;;;;;;;22.92;13.43;;;1.50;96.90;;;;;;5017376;28;20080;-77
2021/04/16 03:45:29;;;;;;;26.42;14.60;;;1.30;97.50;;;;;;5033715;28;20477;-76
2021/04/16 03:47:55;;;;;;;19.63;13.32;;;1.10;99.90;;;;;;5017128;28;20424;-76
2021/04/16 03:50:30;;;;;;;24.77;14.18;;;1.10;99.90;;;;;;5033540;28;20030;-76
2021/04/16 03:52:57;;;;;;;24.67;14.02;;;1.30;99.90;;;;;;5033626;28;20116;-76
2021/04/16 03:55:28;;;;;;;23.35;14.07;;;1.30;99.90;;;;;;5034634;28;20052;-76
2021/04/16 03:57:55;;;;;;;18.50;10.43;;;1.30;99.90;;;;;;5034673;28;20444;-76
2021/04/16 04:00:26;;;;;;;24.13;14.38;;;1.20;99.90;;;;;;5033501;28;20025;-77
2021/04/16 04:02:52;;;;;;;19.50;13.63;;;1.20;99.90;;;;;;5033525;28;20028;-76
2021/04/16 04:05:19;;;;;;;19.13;12.90;;;1.20;99.90;;;;;;5033462;28;20026;-75
2021/04/16 04:07:45;;;;;;;22.35;14.27;;;1.30;99.90;;;;;;5034288;28;20030;-76
2021/04/16 04:10:12;;;;;;;22.42;14.68;;;1.30;99.90;;;;;;5033496;28;20032;-76
2021/04/16 04:12:38;;;;;;;19.90;14.93;;;1.40;99.90;;;;;;5016799;28;20393;-77
2021/04/16 04:15:05;;;;;;;24.35;15.07;;;1.50;99.90;;;;;;5034598;28;20300;-76
2021/04/16 04:17:34;;;;;;;25.60;14.68;;;1.40;99.30;;;;;;5034088;28;20022;-76
2021/04/16 04:20:00;;;;;;;21.20;13.35;;;1.50;99.90;;;;;;5033054;28;20030;-76
2021/04/16 04:22:26;;;;;;;22.88;13.98;;;1.30;97.70;;;;;;5034345;28;20021;-75
2021/04/16 04:24:52;;;;;;;18.67;13.13;;;1.00;97.40;;;;;;5016596;28;20076;-76
2021/04/16 04:27:19;;;;;;;23.52;14.15;;;0.80;98.80;;;;;;5034161;28;20021;-75
2021/04/16 04:29:46;;;;;;;25.27;14.98;;;0.80;99.90;;;;;;5032782;28;20052;-76
2021/04/16 04:32:13;;;;;;;21.45;13.18;;;1.00;99.90;;;;;;5034161;28;20061;-76
2021/04/16 04:34:39;;;;;;;18.35;12.75;;;1.10;98.20;;;;;;5027137;28;20596;-76
2021/04/16 04:37:07;;;;;;;20.63;12.73;;;1.10;99.80;;;;;;4996490;28;20391;-76
2021/04/16 04:39:36;;;;;;;26.92;14.82;;;1.10;98.00;;;;;;5013955;28;20017;-76
2021/04/16 04:42:04;;;;;;;18.92;12.63;;;1.30;99.90;;;;;;5012896;28;20084;-76
2021/04/16 04:44:30;;;;;;;23.20;14.40;;;1.30;98.60;;;;;;5014167;28;20080;-76
2021/04/16 04:46:55;;;;;;;23.20;14.38;;;1.20;97.90;;;;;;5012685;28;20030;-76
2021/04/16 04:49:21;;;;;;;21.98;13.90;;;1.10;99.50;;;;;;4996520;28;20033;-76
2021/04/16 04:51:49;;;;;;;26.13;15.38;;;1.00;99.90;;;;;;4996516;28;20053;-75
2021/04/16 04:54:16;;;;;;;21.88;13.73;;;0.90;99.40;;;;;;5012841;28;20036;-76
2021/04/16 04:56:42;;;;;;;23.13;15.75;;;1.00;99.00;;;;;;5012451;28;20032;-76
2021/04/16 04:59:08;;;;;;;22.75;15.77;;;0.90;98.40;;;;;;5013955;28;20022;-76
2021/04/16 05:01:34;;;;;;;23.73;14.63;;;0.80;98.90;;;;;;5012597;28;20022;-76
2021/04/16 05:04:00;;;;;;;22.48;14.88;;;0.80;99.70;;;;;;5013978;28;20025;-76
2021/04/16 05:06:26;;;;;;;26.27;16.13;;;0.90;99.90;;;;;;5012387;28;20045;-76
2021/04/16 05:08:52;;;;;;;28.05;16.33;;;1.00;99.90;;;;;;5012479;28;20370;-76
2021/04/16 05:11:18;;;;;;;18.42;13.50;;;1.00;99.90;;;;;;5013781;28;20057;-76
2021/04/16 05:13:51;;;;;;;24.73;16.90;;;1.10;99.90;;;;;;5012486;28;20028;-76
2021/04/16 05:16:17;;;;;;;24.48;15.52;;;1.20;98.80;;;;;;4995697;28;20033;-76
2021/04/16 05:18:42;;;;;;;20.75;15.27;;;1.10;99.60;;;;;;5013625;28;20044;-76
2021/04/16 05:21:08;;;;;;;23.20;15.32;;;1.10;99.90;;;;;;5012166;28;20030;-76
2021/04/16 05:23:34;;;;;;;23.33;13.48;;;1.10;99.90;;;;;;4995913;28;20497;-76
2021/04/16 05:25:59;;;;;;;22.80;13.68;;;1.00;99.90;;;;;;5013255;28;20072;-75
2021/04/16 05:28:25;;;;;;;23.85;13.52;;;0.90;99.90;;;;;;5011980;28;20079;-77
2021/04/16 05:30:51;;;;;;;22.58;14.75;;;1.00;99.90;;;;;;5026407;23;20127;-71
2021/04/16 05:33:17;;;;;;;20.83;13.77;;;1.10;99.90;;;;;;5024011;28;20029;-71
2021/04/16 05:35:43;;;;;;;28.08;14.65;;;0.90;99.90;;;;;;5018522;28;20040;-71
2021/04/16 05:38:09;;;;;;;20.70;14.48;;;1.00;99.90;;;;;;5020982;28;20026;-71
2021/04/16 05:40:35;;;;;;;23.77;15.20;;;0.90;99.90;;;;;;5013095;28;20033;-71
2021/04/16 05:43:01;;;;;;;24.85;15.50;;;1.00;99.90;;;;;;4997888;28;20018;-71
2021/04/16 05:45:26;;;;;;;21.80;15.02;;;1.00;99.90;;;;;;4992018;28;20022;-71
2021/04/16 05:47:52;;;;;;;30.73;15.25;;;1.30;99.90;;;;;;4993033;28;20422;-71
2021/04/16 05:50:18;;;;;;;24.33;16.02;;;1.40;99.90;;;;;;5017120;28;20584;-71
2021/04/16 05:52:44;;;;;;;25.00;16.73;;;1.70;99.90;;;;;;5012919;28;20026;-72
2021/04/16 05:55:10;;;;;;;21.52;15.43;;;1.90;99.90;;;;;;5013176;28;20061;-72
2021/04/16 05:57:36;;;;;;;24.05;15.07;;;1.90;99.30;;;;;;5012631;28;20057;-71
2021/04/16 06:00:05;;;;;;;25.27;14.18;;;1.90;99.80;;;;;;4995186;28;20441;-71
2021/04/16 06:02:36;;;;;;;24.73;15.88;;;1.90;99.80;;;;;;4995029;28;20056;-71
2021/04/16 06:05:06;;;;;;;24.97;16.37;;;2.00;99.90;;;;;;5012934;28;20021;-71
2021/04/16 06:07:32;;;;;;;22.63;14.25;;;2.10;98.00;;;;;;5004845;28;20280;-71
2021/04/16 06:09:58;;;;;;;20.92;14.50;;;2.20;98.90;;;;;;5012736;28;20116;-71
2021/04/16 06:12:25;;;;;;;20.17;12.98;;;2.50;97.80;;;;;;5011370;28;20088;-71
2021/04/16 06:14:50;;;;;;;22.27;13.93;;;2.70;96.60;;;;;;5012656;28;20095;-71
2021/04/16 06:17:18;;;;;;;22.75;14.82;;;2.70;95.10;;;;;;5011057;28;20096;-71
2021/04/16 06:19:49;;;;;;;24.63;16.08;;;2.80;95.30;;;;;;5011254;28;20083;-71
2021/04/16 06:22:18;;;;;;;21.65;13.45;;;2.90;95.40;;;;;;5012643;28;20034;-71
2021/04/16 06:24:44;;;;;;;20.85;14.70;;;3.00;95.00;;;;;;5027635;28;20022;-71
2021/04/16 06:27:10;;;;;;;35.22;14.70;;;2.70;94.50;;;;;;4994728;28;20500;-72
2021/04/16 06:29:36;;;;;;;23.45;15.35;;;2.80;95.70;;;;;;5011174;28;20485;-72
2021/04/16 06:32:02;;;;;;;20.27;12.15;;;2.70;95.60;;;;;;5010404;28;20033;-71
2021/04/16 06:34:27;;;;;;;21.85;13.52;;;3.00;94.70;;;;;;5012040;28;20029;-71
2021/04/16 06:36:53;;;;;;;32.42;14.68;;;2.90;95.00;;;;;;5009146;28;20466;-71
2021/04/16 06:39:20;;;;;;;66.93;17.83;;;2.90;95.10;;;;;;5012735;28;20101;-71
2021/04/16 06:41:47;;;;;;;33.50;15.48;;;3.00;94.90;;;;;;5009580;28;20022;-71
2021/04/16 06:44:20;;;;;;;66.43;16.95;;;3.00;94.90;;;;;;5011238;28;20052;-71
2021/04/16 06:46:57;;;;;;;105.18;18.38;;;3.00;95.80;;;;;;5009109;28;20018;-71
2021/04/16 06:49:28;;;;;;;46.38;15.18;;;3.00;95.40;;;;;;5010749;28;20057;-71
2021/04/16 06:52:40;;;;;;;68.63;18.15;;;3.10;95.60;;;;;;5010859;28;20037;-71
2021/04/16 06:55:15;;;;;;;31.70;15.18;;;3.30;94.90;;;;;;5001604;28;20038;-71
2021/04/16 06:57:44;;;;;;;100.07;17.42;;;3.20;94.50;;;;;;5010917;28;20420;-72
2021/04/16 07:00:22;;;;;;;85.18;17.85;;;3.20;94.60;;;;;;5009793;28;20607;-72
2021/04/16 07:03:28;;;;;;;40.20;15.68;;;3.40;94.40;;;;;;5006385;28;20025;-71
2021/04/16 07:05:56;;;;;;;69.57;17.60;;;3.40;94.00;;;;;;5006950;28;20037;-72
2021/04/16 07:08:36;;;;;;;79.70;16.25;;;3.40;93.80;;;;;;5011084;28;20474;-71
2021/04/16 07:11:08;;;;;;;119.80;21.35;;;3.40;94.80;;;;;;5009299;28;20026;-71
2021/04/16 07:13:37;;;;;;;63.38;16.42;;;3.50;94.30;;;;;;5009889;28;20037;-71
2021/04/16 07:16:04;;;;;;;86.75;17.80;;;3.70;93.20;;;;;;5010314;28;20473;-71
2021/04/16 07:18:38;;;;;;;44.15;15.48;;;3.80;93.40;;;;;;5010416;28;20452;-71
2021/04/16 07:21:05;;;;;;;74.53;17.60;;;3.80;92.10;;;;;;5008991;28;20509;-71
2021/04/16 07:23:47;;;;;;;108.95;20.23;;;3.90;91.80;;;;;;5009836;28;20488;-71
2021/04/16 07:26:19;;;;;;;97.55;18.73;;;4.00;91.50;;;;;;5010665;28;20022;-71
2021/04/16 07:28:51;;;;;;;22.73;12.40;;;4.10;91.60;;;;;;5010492;28;20122;-71
2021/04/16 07:31:28;;;;;;;25.38;14.55;;;4.20;90.70;;;;;;5009584;28;20108;-71
2021/04/16 07:33:55;;;;;;;41.63;15.05;;;4.40;90.40;;;;;;5007198;28;20018;-71
2021/04/16 07:36:33;;;;;;;22.42;13.70;;;4.50;90.00;;;;;;5010539;28;20037;-71
2021/04/16 07:39:04;;;;;;;65.72;17.08;;;4.80;87.80;;;;;;5008752;28;20045;-71
2021/04/16 07:41:48;;;;;;;44.78;15.10;;;4.80;87.40;;;;;;5011115;28;20029;-71
2021/04/16 07:44:29;;;;;;;54.05;16.33;;;4.70;87.60;;;;;;4995231;28;20428;-71
2021/04/16 07:47:01;;;;;;;24.85;14.35;;;5.00;85.60;;;;;;5014359;28;20064;-71
2021/04/16 07:49:33;;;;;;;83.80;19.15;;;5.00;84.10;;;;;;5013938;28;20022;-72
2021/04/16 07:52:19;;;;;;;63.88;17.67;;;5.30;83.70;;;;;;5014165;28;20044;-71
2021/04/16 07:55:11;;;;;;;93.00;18.45;;;5.60;82.80;;;;;;5014129;28;20036;-71
2021/04/16 07:57:39;;;;;;;46.75;15.93;;;5.70;79.70;;;;;;5013137;28;20034;-71
2021/04/16 08:00:08;;;;;;;43.58;15.70;;;5.80;80.20;;;;;;5009695;28;20021;-71
2021/04/16 08:02:42;;;;;;;114.28;23.80;;;5.70;77.10;;;;;;5012406;28;20026;-71
2021/04/16 08:05:27;;;;;;;17.83;13.13;;;5.50;77.80;;;;;;5014156;28;20049;-71
2021/04/16 08:08:17;;;;;;;52.47;16.52;;;5.70;77.20;;;;;;5013561;28;20036;-71
2021/04/16 08:10:44;;;;;;;57.63;16.40;;;5.60;76.50;;;;;;5014024;28;20061;-72
2021/04/16 08:13:26;;;;;;;47.30;15.85;;;5.60;77.20;;;;;;5013519;28;20561;-71
2021/04/16 08:15:54;;;;;;;27.52;14.25;;;6.00;75.30;;;;;;5013841;28;20017;-71
2021/04/16 08:18:22;;;;;;;39.35;15.20;;;6.20;72.80;;;;;;5013067;28;20363;-72
2021/04/16 08:20:57;;;;;;;35.50;15.05;;;6.30;72.80;;;;;;5013676;28;20496;-71
2021/04/16 08:23:24;;;;;;;85.63;19.65;;;6.10;72.70;;;;;;5013077;28;20088;-71
2021/04/16 08:25:54;;;;;;;49.40;14.68;;;6.30;71.10;;;;;;5013660;28;20077;-72
2021/04/16 08:28:46;;;;;;;26.95;13.52;;;6.40;70.70;;;;;;5013659;28;20021;-71
2021/04/16 08:31:16;;;;;;;29.90;14.82;;;5.90;69.10;;;;;;5004028;28;20068;-71
2021/04/16 08:33:49;;;;;;;68.75;17.73;;;5.70;71.40;;;;;;4995863;28;20025;-71
2021/04/16 08:36:28;;;;;;;53.00;16.38;;;6.00;71.90;;;;;;5012525;28;20485;-71
2021/04/16 08:39:06;;;;;;;37.55;14.00;;;6.00;69.80;;;;;;5013364;28;20029;-72
2021/04/16 08:41:35;;;;;;;36.28;13.82;;;6.40;70.20;;;;;;5012771;28;20029;-71
2021/04/16 08:44:06;;;;;;;28.55;13.13;;;6.30;68.10;;;;;;5013274;28;20029;-72
2021/04/16 08:46:37;;;;;;;25.60;12.07;;;6.40;68.50;;;;;;5012693;28;20020;-71
2021/04/16 08:49:20;;;;;;;13.77;10.95;;;6.60;66.90;;;;;;5011762;28;20032;-72
2021/04/16 08:51:51;;;;;;;20.27;11.50;;;7.20;64.40;;;;;;5010747;28;20509;-72
2021/04/16 08:54:30;;;;;;;24.13;11.05;;;7.30;63.70;;;;;;5012912;28;20022;-71
2021/04/16 08:57:09;;;;;;;28.80;11.82;;;7.70;63.20;;;;;;5012347;28;20041;-72
2021/04/16 08:59:48;;;;;;;13.55;10.15;;;8.20;61.50;;;;;;5011355;28;20033;-71
2021/04/16 09:02:24;;;;;;;20.95;11.05;;;8.70;59.20;;;;;;5013070;28;20494;-71
2021/04/16 09:05:04;;;;;;;40.63;11.85;;;8.60;57.50;;;;;;5012260;28;20108;-72
2021/04/16 09:07:56;;;;;;;23.52;9.38;;;9.00;57.60;;;;;;5011577;28;20422;-71
2021/04/16 09:10:24;;;;;;;21.08;10.43;;;9.10;56.90;;;;;;5011573;28;20061;-71
2021/04/16 09:12:54;;;;;;;30.05;9.10;;;9.30;55.50;;;;;;5012816;28;20033;-72
2021/04/16 09:15:19;;;;;;;37.97;10.93;;;9.60;54.80;;;;;;5011077;28;20030;-72
2021/04/16 09:17:54;;;;;;;49.30;13.73;;;9.80;55.20;;;;;;5012231;28;20160;-72
2021/04/16 09:20:44;;;;;;;10.57;9.48;;;9.90;53.80;;;;;;4994734;28;20056;-72
2021/04/16 09:23:38;;;;;;;17.17;10.15;;;10.20;54.10;;;;;;4982712;28;20395;-72
2021/04/16 09:26:06;;;;;;;19.33;10.43;;;10.30;52.90;;;;;;5007615;28;20091;-74
2021/04/16 09:28:35;;;;;;;23.10;10.65;;;10.50;53.30;;;;;;5012430;28;20041;-74
2021/04/16 09:31:05;;;;;;;43.70;13.68;;;10.30;51.50;;;;;;5010655;28;20047;-74
2021/04/16 09:33:36;;;;;;;14.05;10.13;;;10.30;52.40;;;;;;5010980;28;20042;-74
2021/04/16 09:36:26;;;;;;;32.00;11.90;;;10.90;52.30;;;;;;5011103;28;20029;-74
2021/04/16 09:38:52;;;;;;;31.70;10.02;;;11.00;51.30;;;;;;5008270;28;20029;-74
2021/04/16 09:41:22;;;;;;;22.40;9.88;;;11.20;50.40;;;;;;5011029;28;20359;-74
2021/04/16 09:43:54;;;;;;;14.68;9.63;;;11.60;50.90;;;;;;5012211;28;20018;-74
2021/04/16 09:46:31;;;;;;;33.28;12.70;;;12.00;48.70;;;;;;5010687;28;20072;-74
2021/04/16 09:49:05;;;;;;;17.98;9.45;;;12.20;48.30;;;;;;5010292;28;20057;-74
2021/04/16 09:51:41;;;;;;;21.50;9.07;;;12.30;49.10;;;;;;5012182;28;20026;-74
2021/04/16 09:54:12;;;;;;;15.00;10.07;;;11.60;50.10;;;;;;5011810;28;20026;-74
2021/04/16 09:56:59;;;;;;;19.42;9.90;;;10.50;50.70;;;;;;5010581;28;20037;-74
2021/04/16 09:59:29;;;;;;;15.18;10.45;;;9.60;52.40;;;;;;5006911;28;20358;-74
2021/04/16 10:02:13;;;;;;;29.88;10.90;;;8.80;54.40;;;;;;5011947;28;20030;-74
2021/04/16 10:05:03;;;;;;;21.02;10.52;;;9.00;55.40;;;;;;5008254;28;20022;-74
2021/04/16 10:07:38;;;;;;;32.03;11.18;;;9.00;55.40;;;;;;5010949;28;20030;-74
2021/04/16 10:10:27;;;;;;;14.02;8.45;;;9.10;54.00;;;;;;5010578;28;20085;-74
2021/04/16 10:13:02;;;;;;;23.20;8.23;;;9.10;53.70;;;;;;5003560;28;20045;-74
2021/04/16 10:15:36;;;;;;;18.05;9.25;;;9.10;54.60;;;;;;5007688;28;20037;-75
2021/04/16 10:18:05;;;;;;;13.50;9.32;;;10.10;53.80;;;;;;5010009;28;20409;-74
2021/04/16 10:20:39;;;;;;;16.02;8.63;;;10.70;51.30;;;;;;5011546;28;20030;-74
2021/04/16 10:23:28;;;;;;;9.77;7.88;;;11.50;50.30;;;;;;5010612;28;20029;-74
2021/04/16 10:38:39;;;;;;;11.55;7.80;;;13.10;46.60;;;;;;5009849;28;20034;-75
2021/04/16 11:23:32;;;;;;;12.10;7.90;;;13.80;42.50;;;;;;5013365;28;20018;-74
2021/04/16 12:38:35;;;;;;;14.70;8.10;;;10.90;44.40;;;;;;5012537;28;20494;-74
2021/04/16 12:41:04;;;;;;;10.43;7.88;;;11.10;43.50;;;;;;5012789;28;20025;-74
2021/04/16 12:43:30;;;;;;;9.30;6.18;;;11.00;44.00;;;;;;5011104;28;20124;-74
2021/04/16 12:45:56;;;;;;;10.70;5.97;;;11.00;44.70;;;;;;5011732;28;20025;-74
2021/04/16 12:48:23;;;;;;;8.00;5.57;;;11.00;46.30;;;;;;5012266;28;20030;-74
2021/04/16 12:50:50;;;;;;;10.98;6.25;;;11.40;45.50;;;;;;5012870;28;20065;-74
2021/04/16 12:53:15;;;;;;;8.85;5.95;;;11.50;44.70;;;;;;5011556;28;20470;-73
2021/04/16 12:55:41;;;;;;;6.65;5.95;;;11.60;45.00;;;;;;5010467;28;20029;-73
2021/04/16 12:58:09;;;;;;;23.40;8.90;;;11.70;45.00;;;;;;5011234;28;20079;-74
2021/04/16 13:00:43;;;;;;;7.75;5.65;;;11.70;44.40;;;;;;5010867;28;20458;-74
2021/04/16 13:03:15;;;;;;;8.98;6.82;;;11.80;45.50;;;;;;5011374;28;20450;-75
2021/04/16 13:05:42;;;;;;;9.73;6.40;;;12.10;44.50;;;;;;5012034;28;20018;-74
2021/04/16 13:08:09;;;;;;;19.42;6.45;;;11.80;43.40;;;;;;5012488;28;20030;-74
2021/04/16 13:10:35;;;;;;;9.60;6.22;;;11.80;44.00;;;;;;5011156;28;20026;-75
2021/04/16 13:13:01;;;;;;;8.05;6.55;;;11.80;42.90;;;;;;5011930;28;20033;-74
2021/04/16 13:15:27;;;;;;;17.02;11.07;;;11.70;43.90;;;;;;5012163;28;20022;-74
2021/04/16 13:17:57;;;;;;;7.28;6.32;;;11.60;44.30;;;;;;5010523;28;20096;-74
2021/04/16 13:20:25;;;;;;;17.80;7.20;;;11.70;43.30;;;;;;5012371;28;20026;-74
2021/04/16 13:22:52;;;;;;;12.55;7.07;;;11.90;43.60;;;;;;5011650;28;20050;-74
2021/04/16 13:25:21;;;;;;;12.73;7.50;;;11.90;43.70;;;;;;5012146;28;20532;-75
2021/04/16 13:27:47;;;;;;;11.80;7.57;;;11.90;43.50;;;;;;5011550;28;20026;-74
2021/04/16 13:30:14;;;;;;;13.98;7.95;;;11.40;43.50;;;;;;5011095;28;20444;-74
2021/04/16 13:32:46;;;;;;;8.38;6.60;;;10.80;43.90;;;;;;5011001;28;20433;-74
2021/04/16 13:35:23;;;;;;;7.55;6.82;;;10.60;45.00;;;;;;5010737;28;20496;-74
2021/04/16 13:37:49;;;;;;;8.75;7.07;;;10.80;44.40;;;;;;5008095;28;20033;-74
2021/04/16 13:40:15;;;;;;;15.77;6.88;;;11.20;44.00;;;;;;5010292;28;20026;-74
2021/04/16 13:42:41;;;;;;;7.50;6.70;;;11.20;42.90;;;;;;5010737;28;20049;-74
2021/04/16 13:45:07;;;;;;;10.65;7.75;;;10.90;43.10;;;;;;4993922;28;20025;-74
2021/04/16 13:47:37;;;;;;;10.18;7.78;;;10.60;44.80;;;;;;5010430;28;20037;-73
2021/04/16 13:50:03;;;;;;;18.42;7.97;;;10.50;44.60;;;;;;5010419;28;20099;-74
2021/04/16 13:52:29;;;;;;;9.50;7.13;;;10.60;43.80;;;;;;5011730;28;20022;-74
2021/04/16 13:54:55;;;;;;;18.40;7.22;;;10.40;44.60;;;;;;5011700;28;20035;-74
2021/04/16 13:57:20;;;;;;;11.40;7.70;;;10.40;44.20;;;;;;5009685;28;20172;-74
2021/04/16 13:59:47;;;;;;;7.65;6.32;;;10.20;46.50;;;;;;5010439;28;20363;-74
2021/04/16 14:02:17;;;;;;;10.82;5.90;;;10.20;47.00;;;;;;5009612;28;20141;-74
2021/04/16 14:04:45;;;;;;;9.18;6.53;;;10.10;47.30;;;;;;5011489;28;20420;-74
2021/04/16 14:07:12;;;;;;;17.17;7.03;;;10.40;47.00;;;;;;5010166;28;20038;-74
2021/04/16 14:09:38;;;;;;;12.60;6.18;;;10.60;46.50;;;;;;5010387;28;20371;-74
2021/04/16 14:12:08;;;;;;;7.65;6.55;;;10.80;46.50;;;;;;5011747;28;20034;-74
2021/04/16 14:14:34;;;;;;;9.48;5.78;;;10.90;45.30;;;;;;4989522;28;20488;-74
2021/04/16 14:17:12;;;;;;;7.80;6.40;;;11.00;44.90;;;;;;5009744;28;20026;-74
2021/04/16 14:19:47;;;;;;;13.48;6.20;;;11.10;45.40;;;;;;5009710;28;20494;-74
2021/04/16 14:22:16;;;;;;;13.85;6.90;;;10.90;45.60;;;;;;5011316;28;20517;-74
2021/04/16 14:28:24;;;;;;;10.88;6.22;;;11.20;44.50;;;;;;5011331;28;20700;-73
2021/04/16 14:30:51;;;;;;;10.07;6.50;;;11.10;45.00;;;;;;5010322;28;20036;-74
2021/04/16 14:33:26;;;;;;;9.38;5.90;;;11.00;44.40;;;;;;5011008;28;20521;-74
2021/04/16 14:35:53;;;;;;;6.75;5.97;;;11.10;44.20;;;;;;5007154;28;20144;-74
2021/04/16 14:38:19;;;;;;;7.00;5.85;;;11.10;43.30;;;;;;5007966;28;20084;-74
2021/04/16 14:40:45;;;;;;;10.82;6.72;;;11.50;42.60;;;;;;5011004;28;20050;-74
2021/04/16 14:43:12;;;;;;;7.53;6.22;;;11.20;42.20;;;;;;5009059;28;20100;-74
2021/04/16 14:45:45;;;;;;;9.57;6.07;;;11.10;42.70;;;;;;5009454;28;20018;-74
2021/04/16 14:48:11;;;;;;;9.65;6.18;;;11.00;41.90;;;;;;5009122;28;20033;-73
2021/04/16 14:50:38;;;;;;;13.00;7.18;;;11.00;43.30;;;;;;5010997;28;20466;-74
2021/04/16 14:53:19;;;;;;;11.30;6.95;;;11.00;44.00;;;;;;5009794;28;20054;-74
2021/04/16 14:55:45;;;;;;;8.20;6.72;;;11.00;44.60;;;;;;5010714;28;20106;-74
2021/04/16 14:58:14;;;;;;;15.00;6.80;;;11.20;44.50;;;;;;5010493;28;20475;-73
2021/04/16 15:00:40;;;;;;;11.27;6.38;;;11.20;45.00;;;;;;5010871;28;20025;-74
2021/04/16 15:03:07;;;;;;;16.17;7.82;;;11.00;44.00;;;;;;5009555;28;20034;-74